createdAt,value
2022-12-02T00:00:52.621Z,133.95
2022-12-02T00:05:15.612Z,139.68
2022-12-02T00:09:34.861Z,148.63
2022-12-02T00:13:52.070Z,146.05
2022-12-02T00:18:10.822Z,131.80
2022-12-02T00:22:27.911Z,133.75
2022-12-02T00:26:45.976Z,137.45
2022-12-02T00:31:03.093Z,136.70
2022-12-02T00:35:20.497Z,129.60
2022-12-02T00:39:37.593Z,147.68
2022-12-02T00:44:13.500Z,139.02
2022-12-02T00:48:30.635Z,139.18
2022-12-02T00:52:47.737Z,126.75
2022-12-02T00:57:06.380Z,142.88
2022-12-02T01:01:23.604Z,198.68
2022-12-02T01:05:40.942Z,181.02
2022-12-02T01:09:58.089Z,156.00
2022-12-02T01:14:15.224Z,144.23
2022-12-02T01:18:32.501Z,184.60
2022-12-02T01:22:49.861Z,150.98
2022-12-02T01:27:06.991Z,155.03
2022-12-02T01:31:24.159Z,148.82
2022-12-02T01:35:41.346Z,160.68
2022-12-02T01:39:58.469Z,152.13
2022-12-02T01:44:15.832Z,151.73
2022-12-02T01:48:35.560Z,155.15
2022-12-02T01:52:57.840Z,147.45
2022-12-02T01:57:15.997Z,181.45
2022-12-02T02:01:34.952Z,192.53
2022-12-02T02:05:52.391Z,160.95
2022-12-02T02:10:09.960Z,191.40
2022-12-02T02:14:27.076Z,203.83
2022-12-02T02:18:44.204Z,193.07
2022-12-02T02:23:07.187Z,153.70
2022-12-02T02:27:24.391Z,154.80
2022-12-02T02:31:41.611Z,167.40
2022-12-02T02:35:59.450Z,194.95
2022-12-02T02:40:18.787Z,154.57
2022-12-02T02:44:35.958Z,157.10
2022-12-02T02:48:54.080Z,222.55
2022-12-02T02:53:13.298Z,149.05
2022-12-02T02:57:30.401Z,158.27
2022-12-02T03:01:48.812Z,194.60
2022-12-02T03:06:08.084Z,202.18
2022-12-02T03:10:25.623Z,162.27
2022-12-02T03:14:43.316Z,151.20
2022-12-02T03:19:00.995Z,181.03
2022-12-02T03:23:18.301Z,108.27
2022-12-02T03:27:35.587Z,142.88
2022-12-02T03:31:52.912Z,168.73
2022-12-02T03:36:10.911Z,157.77
2022-12-02T03:40:28.354Z,157.75
2022-12-02T03:44:45.747Z,129.70
2022-12-02T03:49:03.616Z,148.73
2022-12-02T03:53:21.554Z,164.93
2022-12-02T03:57:40.702Z,138.52
2022-12-02T04:01:58.234Z,144.02
2022-12-02T04:06:15.556Z,150.23
2022-12-02T04:10:32.644Z,163.75
2022-12-02T04:14:50.037Z,134.38
2022-12-02T04:19:07.287Z,154.43
2022-12-02T04:23:24.381Z,136.48
2022-12-02T04:27:41.464Z,132.93
2022-12-02T04:31:58.764Z,136.70
2022-12-02T04:36:15.899Z,132.88
2022-12-02T04:40:33.080Z,141.05
2022-12-02T04:44:50.636Z,185.30
2022-12-02T04:49:07.929Z,151.82
2022-12-02T04:53:25.030Z,137.55
2022-12-02T04:57:42.157Z,130.13
2022-12-02T05:01:59.391Z,125.00
2022-12-02T05:06:17.381Z,143.70
2022-12-02T05:10:34.530Z,153.38
2022-12-02T05:14:52.848Z,151.50
2022-12-02T05:19:10.276Z,139.63
2022-12-02T05:23:27.540Z,154.18
2022-12-02T05:27:44.627Z,165.95
2022-12-02T05:32:01.779Z,172.88
2022-12-02T05:36:18.897Z,176.65
2022-12-02T05:40:36.010Z,150.65
2022-12-02T05:44:53.997Z,152.57
2022-12-02T05:49:20.662Z,166.25
2022-12-02T05:53:40.109Z,157.13
2022-12-02T05:58:01.609Z,183.68
2022-12-02T06:02:26.103Z,159.43
2022-12-02T06:06:43.553Z,190.57
2022-12-02T06:11:03.711Z,174.40
2022-12-02T06:15:21.006Z,184.70
2022-12-02T06:19:46.850Z,175.98
2022-12-02T06:24:09.908Z,180.15
2022-12-02T06:28:30.943Z,197.95
2022-12-02T06:32:57.378Z,197.85
2022-12-02T06:37:16.470Z,214.57
2022-12-02T06:41:37.632Z,183.10
2022-12-02T06:45:55.161Z,199.70
2022-12-02T06:50:29.753Z,187.97
2022-12-02T06:54:47.171Z,186.80
2022-12-02T06:59:06.144Z,242.40
2022-12-02T07:03:30.846Z,185.57
2022-12-02T07:07:48.177Z,155.23
2022-12-02T07:12:15.107Z,173.05
2022-12-02T07:16:36.369Z,180.00
2022-12-02T07:20:53.689Z,152.95
2022-12-02T07:25:10.779Z,142.77
2022-12-02T07:29:30.726Z,242.73
2022-12-02T07:33:48.229Z,180.98
2022-12-02T07:38:05.385Z,156.17
2022-12-02T07:42:22.542Z,186.82
2022-12-02T07:46:39.714Z,132.00
2022-12-02T07:50:56.815Z,144.18
2022-12-02T07:55:14.113Z,157.35
2022-12-02T07:59:31.342Z,184.70
2022-12-02T08:03:48.482Z,137.43
2022-12-02T08:08:05.797Z,143.77
2022-12-02T08:12:23.009Z,99.45
2022-12-02T08:16:40.209Z,121.90
2022-12-02T08:20:57.396Z,101.32
2022-12-02T08:25:14.851Z,101.55
2022-12-02T08:29:32.256Z,113.97
2022-12-02T08:33:50.145Z,103.25
2022-12-02T08:38:07.640Z,95.13
2022-12-02T08:42:24.750Z,88.50
2022-12-02T08:46:42.244Z,81.32
2022-12-02T08:50:59.462Z,80.90
2022-12-02T08:55:16.626Z,88.50
2022-12-02T08:59:33.762Z,92.13
2022-12-02T09:03:50.892Z,81.45
2022-12-02T09:08:08.457Z,96.57
2022-12-02T09:12:27.878Z,88.37
2022-12-02T09:16:44.972Z,96.75
2022-12-02T09:21:02.173Z,111.07
2022-12-02T09:25:19.396Z,99.15
2022-12-02T09:29:36.513Z,90.50
2022-12-02T09:33:53.683Z,106.40
2022-12-02T09:38:10.950Z,109.55
2022-12-02T09:42:28.233Z,110.85
2022-12-02T09:46:45.482Z,109.18
2022-12-02T09:51:02.907Z,117.07
2022-12-02T09:55:20.511Z,116.32
2022-12-02T09:59:38.076Z,125.53
2022-12-02T10:03:55.519Z,162.93
2022-12-02T10:08:17.380Z,143.43
2022-12-02T10:12:34.753Z,123.97
2022-12-02T10:16:53.797Z,148.73
2022-12-02T10:21:10.903Z,177.80
2022-12-02T10:25:32.013Z,144.25
2022-12-02T10:29:51.796Z,141.25
2022-12-02T10:34:20.552Z,152.93
2022-12-02T10:38:40.897Z,159.85
2022-12-02T10:43:12.085Z,156.65
2022-12-02T10:47:29.258Z,163.43
2022-12-02T10:51:46.389Z,190.65
2022-12-02T10:56:03.523Z,143.20
2022-12-02T11:00:23.440Z,154.25
2022-12-02T11:04:40.596Z,165.77
2022-12-02T11:09:17.356Z,123.22
2022-12-02T11:13:53.577Z,120.03
2022-12-02T11:18:32.706Z,139.82
2022-12-02T11:27:20.829Z,137.77
2022-12-02T11:31:38.025Z,121.72
2022-12-02T11:36:07.323Z,112.13
2022-12-02T11:40:27.627Z,123.25
2022-12-02T11:44:44.719Z,122.30
2022-12-02T11:49:01.848Z,137.10
2022-12-02T11:53:22.210Z,142.90
2022-12-02T11:57:47.701Z,149.20
2022-12-02T12:02:24.766Z,126.80
2022-12-02T12:06:57.445Z,112.30
2022-12-02T12:11:29.526Z,116.10
2022-12-02T12:15:57.034Z,122.07
2022-12-02T12:20:14.115Z,144.40
2022-12-02T12:24:34.400Z,106.13
2022-12-02T12:28:51.464Z,108.00
2022-12-02T12:33:08.554Z,105.18
2022-12-02T12:37:25.921Z,99.32
2022-12-02T12:42:00.580Z,146.23
2022-12-02T12:46:18.807Z,107.70
2022-12-02T12:50:35.957Z,110.78
2022-12-02T12:54:53.286Z,113.70
2022-12-02T12:59:10.674Z,107.57
2022-12-02T13:03:27.926Z,117.68
2022-12-02T13:07:45.097Z,136.77
2022-12-02T13:12:02.313Z,124.55
2022-12-02T13:16:19.593Z,129.55
2022-12-02T13:20:36.843Z,121.65
2022-12-02T13:24:54.029Z,112.03
2022-12-02T13:29:11.386Z,121.47
2022-12-02T13:33:28.710Z,108.10
2022-12-02T13:37:45.885Z,107.55
2022-12-02T13:42:03.309Z,105.03
2022-12-02T13:46:20.487Z,106.93
2022-12-02T13:50:37.619Z,101.78
2022-12-02T13:54:54.837Z,107.30
2022-12-02T13:59:12.013Z,115.53
2022-12-02T14:03:29.258Z,115.57
2022-12-02T14:07:46.451Z,116.30
2022-12-02T14:12:03.910Z,115.40
2022-12-02T14:16:21.589Z,114.40
2022-12-02T14:20:38.816Z,127.10
2022-12-02T14:24:58.504Z,131.77
2022-12-02T14:29:15.736Z,117.03
2022-12-02T14:34:09.128Z,117.70
2022-12-02T14:38:09.982Z,119.65
2022-12-02T14:42:27.105Z,108.57
2022-12-02T14:46:47.136Z,114.70
2022-12-02T14:51:04.529Z,111.20
2022-12-02T14:55:21.808Z,117.18
2022-12-02T14:59:38.965Z,117.72
2022-12-02T15:03:56.088Z,130.30
2022-12-02T15:08:13.324Z,145.93
2022-12-02T15:12:30.681Z,160.85
2022-12-02T15:16:47.896Z,115.10
2022-12-02T15:21:09.272Z,103.93
2022-12-02T15:25:29.233Z,140.27
2022-12-02T15:29:46.399Z,129.52
2022-12-02T15:34:03.544Z,119.28
2022-12-02T15:38:20.674Z,112.82
2022-12-02T15:42:37.843Z,134.60
2022-12-02T15:46:55.448Z,119.15
2022-12-02T15:51:13.174Z,122.83
2022-12-02T15:55:30.325Z,136.50
2022-12-02T15:59:47.444Z,122.18
2022-12-02T16:04:04.845Z,116.88
2022-12-02T16:08:22.287Z,157.20
2022-12-02T16:12:39.475Z,130.93
2022-12-02T16:16:57.155Z,107.07
2022-12-02T16:21:14.257Z,113.70
2022-12-02T16:25:31.414Z,127.10
2022-12-02T16:29:48.594Z,106.57
2022-12-02T16:34:05.768Z,124.93
2022-12-02T16:38:22.876Z,117.22
2022-12-02T16:42:40.020Z,106.78
2022-12-02T16:46:57.165Z,114.82
2022-12-02T16:51:14.296Z,106.10
2022-12-02T16:55:31.445Z,115.50
2022-12-02T16:59:48.571Z,132.13
2022-12-02T17:04:05.703Z,124.97
2022-12-02T17:08:22.929Z,144.25
2022-12-02T17:12:40.143Z,124.70
2022-12-02T17:16:57.451Z,127.88
2022-12-02T17:21:15.273Z,135.93
2022-12-02T17:25:32.429Z,124.15
2022-12-02T17:29:49.574Z,126.15
2022-12-02T17:34:06.700Z,118.13
2022-12-02T17:38:23.794Z,124.15
2022-12-02T17:42:40.961Z,142.07
2022-12-02T17:46:58.080Z,128.77
2022-12-02T17:51:16.447Z,184.15
2022-12-02T17:55:33.610Z,181.85
2022-12-02T17:59:50.741Z,192.70
2022-12-02T18:04:08.088Z,227.07
2022-12-02T18:08:25.199Z,154.77
2022-12-02T18:12:42.295Z,169.82
2022-12-02T18:16:59.535Z,198.98
2022-12-02T18:21:16.821Z,199.25
2022-12-02T18:25:33.907Z,229.15
2022-12-02T18:29:50.986Z,263.67
2022-12-02T18:34:08.099Z,204.32
2022-12-02T18:38:25.204Z,166.68
2022-12-02T18:42:42.320Z,144.40
2022-12-02T18:46:59.730Z,175.10
2022-12-02T18:51:16.872Z,176.40
2022-12-02T18:55:33.981Z,170.27
2022-12-02T18:59:51.130Z,219.40
2022-12-02T19:04:09.649Z,178.73
2022-12-02T19:08:26.754Z,181.23
2022-12-02T19:12:43.883Z,175.90
2022-12-02T19:17:01.198Z,273.13
2022-12-02T19:21:24.318Z,280.88
2022-12-02T19:25:45.978Z,185.15
2022-12-02T19:30:07.085Z,175.02
2022-12-02T19:34:24.168Z,194.93
2022-12-02T19:38:41.512Z,162.52
2022-12-02T19:42:58.668Z,160.30
2022-12-02T19:47:15.826Z,169.15
2022-12-02T19:51:32.962Z,181.40
2022-12-02T19:55:50.205Z,172.52
2022-12-02T20:00:09.224Z,165.43
2022-12-02T20:04:40.783Z,224.65
2022-12-02T20:08:58.936Z,162.25
2022-12-02T20:13:17.797Z,150.02
2022-12-02T20:17:35.205Z,156.35
2022-12-02T20:21:52.303Z,161.68
2022-12-02T20:30:28.429Z,184.98
2022-12-02T20:34:45.586Z,199.45
2022-12-02T20:39:03.418Z,172.73
2022-12-02T20:43:20.566Z,177.35
2022-12-02T20:47:37.710Z,198.70
2022-12-02T20:51:55.042Z,175.85
2022-12-02T20:56:12.547Z,189.70
2022-12-02T21:00:29.762Z,182.67
2022-12-02T21:04:48.290Z,214.52
2022-12-02T21:09:05.561Z,233.32
2022-12-02T21:13:22.681Z,226.60
2022-12-02T21:17:39.846Z,171.00
2022-12-02T21:21:56.939Z,243.10
2022-12-02T21:26:14.089Z,188.00
2022-12-02T21:30:31.352Z,178.43
2022-12-02T21:34:48.555Z,225.15
2022-12-02T21:39:06.142Z,231.43
2022-12-02T21:43:23.227Z,172.80
2022-12-02T21:47:40.425Z,171.00
2022-12-02T21:51:57.543Z,177.77
2022-12-02T21:56:14.687Z,237.27
2022-12-02T22:00:33.060Z,171.07
2022-12-02T22:04:50.670Z,179.23
2022-12-02T22:09:08.425Z,153.70
2022-12-02T22:13:25.543Z,166.77
2022-12-02T22:17:42.767Z,171.98
2022-12-02T22:21:59.977Z,140.43
2022-12-02T22:26:20.462Z,147.20
2022-12-02T22:30:37.641Z,150.25
2022-12-02T22:34:54.958Z,162.20
2022-12-02T22:39:12.252Z,252.90
2022-12-02T22:43:29.384Z,181.55
2022-12-02T22:47:46.519Z,148.90
2022-12-02T22:52:03.692Z,146.73
2022-12-02T22:56:20.792Z,137.50
2022-12-02T23:00:37.923Z,135.70
2022-12-02T23:04:55.427Z,155.65
2022-12-02T23:09:12.729Z,148.40
2022-12-02T23:13:29.929Z,140.30
2022-12-02T23:17:47.093Z,147.02
2022-12-02T23:22:04.238Z,223.80
2022-12-02T23:26:21.396Z,168.77
2022-12-02T23:30:38.661Z,144.27
2022-12-02T23:34:55.754Z,141.43
2022-12-02T23:39:12.882Z,158.52
2022-12-02T23:43:30.064Z,162.95
2022-12-02T23:47:47.173Z,171.85
2022-12-02T23:52:04.630Z,132.02
2022-12-02T23:56:21.731Z,150.67
